A6CTF OMDW-OMDW
Flight info
| Callsign | A6CTF |
|---|---|
| Flight time | 0h 4m |
| Altitude | 4000 |
| Route | VEKAL DCT MIROT DCT UKUVO DCT SISOB DCT SENPA DCT NABIX DCT RAGDO DCT KIVUS DCT AMBOV DCT RIDAP DCT TOTKU DCT ITBUL DCT DIXAM DCT VUTEB DCT LOVEM DCT TOVIV DCT ALRAR DCT GONVI DCT DATOB DCT EGTAG DCT OBREV |
| Aircraft | SR22/L-SDGRY/S |
Departure
| Time | 2026-04-26 12:37 |
|---|---|
| Airport | Al Maktoum International Airport (OMDW) |
Arrival
| Time | 2026-04-26 12:41 |
|---|---|
| Airport | Al Maktoum International Airport (OMDW) |
| Time | Latitude | Longitude | Altitude | Speed | Heading |
|---|---|---|---|---|---|
| 2026-04-26 12:22 | 24.87733 | 55.18101 | 175 ft | 0 kts | 211° |
| 2026-04-26 12:25 | 24.87734 | 55.18101 | 175 ft | 0 kts | 211° |
| 2026-04-26 12:27 | 24.87734 | 55.18102 | 175 ft | 0 kts | 211° |
| 2026-04-26 12:30 | 24.87735 | 55.18102 | 175 ft | 0 kts | 211° |
| 2026-04-26 12:32 | 24.87729 | 55.18097 | 175 ft | 10 kts | 227° |
| 2026-04-26 12:32 | 24.87812 | 55.18166 | 175 ft | 1 kts | 61° |
| 2026-04-26 12:33 | 24.87848 | 55.18162 | 175 ft | 10 kts | 333° |
| 2026-04-26 12:33 | 24.87906 | 55.18086 | 175 ft | 16 kts | 300° |
| 2026-04-26 12:33 | 24.87959 | 55.17990 | 175 ft | 14 kts | 302° |
| 2026-04-26 12:33 | 24.88014 | 55.17886 | 175 ft | 17 kts | 304° |
| 2026-04-26 12:34 | 24.88071 | 55.17785 | 175 ft | 10 kts | 304° |
| 2026-04-26 12:34 | 24.88119 | 55.17712 | 175 ft | 14 kts | 319° |
| 2026-04-26 12:34 | 24.88213 | 55.17729 | 175 ft | 17 kts | 33° |
| 2026-04-26 12:34 | 24.88291 | 55.17781 | 174 ft | 11 kts | 31° |
| 2026-04-26 12:35 | 24.88366 | 55.17829 | 174 ft | 13 kts | 20° |
| 2026-04-26 12:35 | 24.88450 | 55.17885 | 174 ft | 15 kts | 30° |
| 2026-04-26 12:35 | 24.88546 | 55.17944 | 174 ft | 16 kts | 32° |
| 2026-04-26 12:35 | 24.88643 | 55.17941 | 173 ft | 15 kts | 317° |
| 2026-04-26 12:36 | 24.88722 | 55.17805 | 172 ft | 42 kts | 301° |
| 2026-04-26 12:36 | 24.88960 | 55.17368 | 193 ft | 83 kts | 302° |
| 2026-04-26 12:36 | 24.89279 | 55.16780 | 316 ft | 94 kts | 302° |
| 2026-04-26 12:36 | 24.89628 | 55.16141 | 434 ft | 99 kts | 305° |
| 2026-04-26 12:37 | 24.89988 | 55.15502 | 601 ft | 97 kts | 303° |
| 2026-04-26 12:37 | 24.90344 | 55.14860 | 727 ft | 101 kts | 304° |
| 2026-04-26 12:37 | 24.90735 | 55.14151 | 871 ft | 112 kts | 306° |
| 2026-04-26 12:37 | 24.91513 | 55.13866 | 875 ft | 145 kts | 19° |
| 2026-04-26 12:38 | 24.91720 | 55.14980 | 871 ft | 177 kts | 110° |
| 2026-04-26 12:38 | 24.91194 | 55.16093 | 1200 ft | 160 kts | 118° |
| 2026-04-26 12:38 | 24.90623 | 55.17225 | 1092 ft | 173 kts | 110° |
| 2026-04-26 12:38 | 24.90091 | 55.18387 | 983 ft | 171 kts | 118° |
| 2026-04-26 12:39 | 24.89558 | 55.19503 | 1050 ft | 157 kts | 114° |
| 2026-04-26 12:39 | 24.89079 | 55.20573 | 1011 ft | 152 kts | 110° |
| 2026-04-26 12:39 | 24.88488 | 55.21481 | 832 ft | 154 kts | 196° |
| 2026-04-26 12:39 | 24.87926 | 55.20770 | 813 ft | 118 kts | 264° |
| 2026-04-26 12:40 | 24.87879 | 55.19977 | 675 ft | 87 kts | 283° |
| 2026-04-26 12:40 | 24.87967 | 55.19382 | 530 ft | 75 kts | 283° |
| 2026-04-26 12:40 | 24.88110 | 55.18839 | 465 ft | 70 kts | 301° |
| 2026-04-26 12:40 | 24.88373 | 55.18409 | 339 ft | 66 kts | 306° |
| 2026-04-26 12:41 | 24.88614 | 55.17999 | 232 ft | 63 kts | 304° |
| 2026-04-26 12:41 | 24.88829 | 55.17591 | 169 ft | 57 kts | 306° |
| 2026-04-26 12:41 | 24.89016 | 55.17278 | 164 ft | 42 kts | 304° |
| 2026-04-26 12:41 | 24.89166 | 55.17045 | 159 ft | 33 kts | 309° |
| 2026-04-26 12:42 | 24.89251 | 55.16844 | 157 ft | 26 kts | 278° |
| 2026-04-26 12:42 | 24.89370 | 55.16636 | 153 ft | 41 kts | 301° |
| 2026-04-26 12:42 | 24.89538 | 55.16327 | 150 ft | 52 kts | 295° |
| 2026-04-26 12:42 | 24.89743 | 55.15963 | 156 ft | 62 kts | 303° |
| 2026-04-26 12:43 | 24.89977 | 55.15544 | 172 ft | 65 kts | 305° |
| 2026-04-26 12:43 | 24.90215 | 55.15111 | 187 ft | 66 kts | 305° |
| 2026-04-26 12:43 | 24.90455 | 55.14681 | 226 ft | 66 kts | 303° |
| 2026-04-26 12:43 | 24.90694 | 55.14227 | 328 ft | 73 kts | 302° |
| 2026-04-26 12:44 | 24.90977 | 55.13744 | 423 ft | 75 kts | 314° |
| 2026-04-26 12:44 | 24.91542 | 55.13776 | 398 ft | 110 kts | 30° |
| 2026-04-26 12:44 | 24.91632 | 55.14677 | 429 ft | 146 kts | 117° |
| 2026-04-26 12:44 | 24.91023 | 55.15527 | 622 ft | 144 kts | 116° |
| 2026-04-26 12:45 | 24.90628 | 55.16532 | 840 ft | 143 kts | 104° |
| 2026-04-26 12:45 | 24.90218 | 55.17586 | 807 ft | 150 kts | 113° |
| 2026-04-26 12:45 | 24.89761 | 55.18551 | 865 ft | 137 kts | 114° |
| 2026-04-26 12:45 | 24.89365 | 55.19498 | 795 ft | 138 kts | 106° |
| 2026-04-26 12:46 | 24.89150 | 55.20553 | 674 ft | 147 kts | 99° |
| 2026-04-26 12:46 | 24.88783 | 55.21561 | 833 ft | 130 kts | 108° |
| 2026-04-26 12:46 | 24.88236 | 55.22258 | 853 ft | 130 kts | 175° |
| 2026-04-26 12:46 | 24.87488 | 55.21872 | 748 ft | 114 kts | 247° |
| 2026-04-26 12:47 | 24.87372 | 55.21185 | 731 ft | 84 kts | 275° |
| 2026-04-26 12:47 | 24.87421 | 55.20565 | 600 ft | 80 kts | 292° |
| 2026-04-26 12:47 | 24.87578 | 55.20002 | 496 ft | 70 kts | 296° |
| 2026-04-26 12:47 | 24.87770 | 55.19531 | 402 ft | 65 kts | 300° |
| 2026-04-26 12:48 | 24.88008 | 55.19080 | 380 ft | 74 kts | 304° |
| 2026-04-26 12:48 | 24.88269 | 55.18617 | 373 ft | 65 kts | 306° |
| 2026-04-26 12:48 | 24.88426 | 55.18350 | 316 ft | 62 kts | 301° |
| 2026-04-26 12:48 | 24.88713 | 55.17821 | 219 ft | 58 kts | 304° |
| 2026-04-26 12:49 | 24.88865 | 55.17541 | 168 ft | 45 kts | 304° |
| 2026-04-26 12:49 | 24.89014 | 55.17280 | 166 ft | 71 kts | 303° |
| 2026-04-26 12:49 | 24.89311 | 55.16737 | 214 ft | 92 kts | 302° |
| 2026-04-26 12:49 | 24.89645 | 55.16102 | 349 ft | 100 kts | 304° |
| 2026-04-26 12:50 | 24.89953 | 55.15529 | 480 ft | 101 kts | 301° |
| 2026-04-26 12:50 | 24.90341 | 55.14832 | 643 ft | 110 kts | 302° |
| 2026-04-26 12:50 | 24.90843 | 55.13858 | 993 ft | 113 kts | 299° |
| 2026-04-26 12:50 | 24.91230 | 55.12988 | 964 ft | 138 kts | 303° |
| 2026-04-26 12:51 | 24.91575 | 55.12383 | 1011 ft | 143 kts | 304° |
| 2026-04-26 12:51 | 24.92141 | 55.11398 | 912 ft | 159 kts | 304° |
| 2026-04-26 12:51 | 24.92846 | 55.10441 | 897 ft | 162 kts | 317° |
| 2026-04-26 12:51 | 24.93944 | 55.10274 | 667 ft | 182 kts | 22° |
| 2026-04-26 12:52 | 24.94837 | 55.11162 | 1082 ft | 156 kts | 44° |
| 2026-04-26 12:52 | 24.95571 | 55.11812 | 1709 ft | 124 kts | 25° |
| 2026-04-26 12:52 | 24.96400 | 55.12306 | 1775 ft | 140 kts | 30° |
| 2026-04-26 12:52 | 24.97254 | 55.12815 | 1515 ft | 159 kts | 17° |
| 2026-04-26 12:53 | 24.98349 | 55.13175 | 1260 ft | 157 kts | 18° |
| 2026-04-26 12:53 | 24.99224 | 55.13689 | 1473 ft | 126 kts | 26° |
| 2026-04-26 12:53 | 24.99803 | 55.14538 | 898 ft | 160 kts | 79° |
| 2026-04-26 12:53 | 24.99881 | 55.15633 | 1132 ft | 128 kts | 78° |
| 2026-04-26 12:54 | 25.00116 | 55.16578 | 955 ft | 132 kts | 61° |
| 2026-04-26 12:54 | 25.00529 | 55.17447 | 1005 ft | 117 kts | 42° |
| 2026-04-26 12:54 | 25.01238 | 55.17582 | 973 ft | 110 kts | 338° |
| 2026-04-26 12:54 | 25.01986 | 55.17319 | 866 ft | 114 kts | 348° |
| 2026-04-26 12:55 | 25.02747 | 55.17279 | 834 ft | 109 kts | 358° |
| 2026-04-26 12:55 | 25.03495 | 55.17401 | 749 ft | 112 kts | 11° |
| 2026-04-26 12:55 | 25.04230 | 55.17846 | 587 ft | 123 kts | 25° |
| 2026-04-26 12:55 | 25.04953 | 55.18260 | 608 ft | 111 kts | 19° |
| 2026-04-26 12:56 | 25.05731 | 55.18592 | 733 ft | 125 kts | 14° |
| 2026-04-26 12:56 | 25.06601 | 55.18914 | 791 ft | 132 kts | 12° |
| 2026-04-26 12:56 | 25.07441 | 55.19295 | 894 ft | 131 kts | 36° |
| 2026-04-26 12:56 | 25.08077 | 55.20058 | 864 ft | 137 kts | 43° |
| 2026-04-26 12:57 | 25.08686 | 55.20826 | 970 ft | 131 kts | 41° |
| 2026-04-26 12:57 | 25.09305 | 55.21543 | 1097 ft | 127 kts | 41° |
| 2026-04-26 12:57 | 25.09852 | 55.22302 | 1169 ft | 125 kts | 46° |
| 2026-04-26 12:58 | 25.10989 | 55.23922 | 925 ft | 151 kts | 50° |
| 2026-04-26 12:58 | 25.11595 | 55.24798 | 1148 ft | 134 kts | 45° |
| 2026-04-26 12:58 | 25.12216 | 55.25594 | 1136 ft | 138 kts | 43° |
| 2026-04-26 12:58 | 25.12812 | 55.26364 | 1340 ft | 124 kts | 44° |
| 2026-04-26 12:59 | 25.13484 | 55.27131 | 723 ft | 169 kts | 40° |
| 2026-04-26 12:59 | 25.14266 | 55.27980 | 895 ft | 150 kts | 41° |
| 2026-04-26 12:59 | 25.14957 | 55.28774 | 945 ft | 143 kts | 43° |
| 2026-04-26 12:59 | 25.15619 | 55.29579 | 950 ft | 146 kts | 43° |
| 2026-04-26 13:00 | 25.16269 | 55.30451 | 938 ft | 150 kts | 47° |
| 2026-04-26 13:00 | 25.16865 | 55.31356 | 1077 ft | 139 kts | 54° |
| 2026-04-26 13:00 | 25.17248 | 55.32297 | 1274 ft | 134 kts | 67° |
| 2026-04-26 13:00 | 25.17621 | 55.33228 | 1258 ft | 137 kts | 49° |
| 2026-04-26 13:01 | 25.18281 | 55.33432 | 762 ft | 152 kts | 263° |
| 2026-04-26 13:01 | 25.18150 | 55.32221 | 614 ft | 156 kts | 265° |
| 2026-04-26 13:01 | 25.18265 | 55.31132 | 568 ft | 146 kts | 321° |
| 2026-04-26 13:01 | 25.19182 | 55.31428 | 694 ft | 137 kts | 33° |
| 2026-04-26 13:02 | 25.19752 | 55.32178 | 735 ft | 145 kts | 58° |
| 2026-04-26 13:02 | 25.20416 | 55.32874 | 797 ft | 135 kts | 24° |
| 2026-04-26 13:02 | 25.21233 | 55.33392 | 924 ft | 135 kts | 14° |
| 2026-04-26 13:02 | 25.22197 | 55.33480 | 829 ft | 146 kts | 359° |
| 2026-04-26 13:03 | 25.23221 | 55.33619 | 821 ft | 150 kts | 19° |
| 2026-04-26 13:03 | 25.23538 | 55.34619 | 794 ft | 164 kts | 103° |
| 2026-04-26 13:03 | 25.23012 | 55.35729 | 848 ft | 159 kts | 121° |
| 2026-04-26 13:03 | 25.22368 | 55.36718 | 909 ft | 156 kts | 122° |
| 2026-04-26 13:04 | 25.21813 | 55.37738 | 961 ft | 154 kts | 116° |
| 2026-04-26 13:04 | 25.21291 | 55.38762 | 1056 ft | 151 kts | 122° |
| 2026-04-26 13:04 | 25.20837 | 55.39739 | 1145 ft | 125 kts | 108° |
| 2026-04-26 13:04 | 25.20646 | 55.40592 | 966 ft | 107 kts | 106° |
| 2026-04-26 13:05 | 25.20310 | 55.41303 | 708 ft | 103 kts | 118° |
| 2026-04-26 13:05 | 25.20385 | 55.41919 | 642 ft | 91 kts | 35° |
| 2026-04-26 13:05 | 25.20949 | 55.42236 | 595 ft | 90 kts | 6° |
| 2026-04-26 13:05 | 25.21500 | 55.42166 | 570 ft | 75 kts | 334° |
| 2026-04-26 13:06 | 25.21984 | 55.41875 | 515 ft | 81 kts | 321° |
| 2026-04-26 13:06 | 25.22408 | 55.41436 | 366 ft | 84 kts | 321° |
| 2026-04-26 13:06 | 25.22763 | 55.40984 | 310 ft | 74 kts | 303° |
| 2026-04-26 13:06 | 25.23018 | 55.40525 | 196 ft | 71 kts | 303° |
| 2026-04-26 13:07 | 25.23269 | 55.40070 | 162 ft | 70 kts | 301° |
| 2026-04-26 13:07 | 25.23527 | 55.39611 | 103 ft | 68 kts | 303° |
| 2026-04-26 13:07 | 25.23765 | 55.39178 | 46 ft | 67 kts | 301° |
| 2026-04-26 13:07 | 25.24000 | 55.38755 | 26 ft | 62 kts | 298° |
| 2026-04-26 13:08 | 25.24195 | 55.38359 | 26 ft | 52 kts | 283° |
| 2026-04-26 13:08 | 25.24453 | 55.37932 | 36 ft | 80 kts | 301° |
| 2026-04-26 13:08 | 25.24741 | 55.37411 | 175 ft | 78 kts | 301° |
| 2026-04-26 13:08 | 25.25035 | 55.36887 | 296 ft | 80 kts | 300° |
| 2026-04-26 13:09 | 25.25344 | 55.36385 | 469 ft | 80 kts | 300° |
| 2026-04-26 13:09 | 25.25653 | 55.35839 | 568 ft | 86 kts | 303° |
| 2026-04-26 13:09 | 25.25920 | 55.35241 | 639 ft | 91 kts | 280° |
| 2026-04-26 13:09 | 25.25568 | 55.34519 | 529 ft | 128 kts | 221° |
| 2026-04-26 13:10 | 25.24734 | 55.34388 | 670 ft | 131 kts | 157° |
| 2026-04-26 13:10 | 25.24100 | 55.35199 | 732 ft | 150 kts | 120° |
| 2026-04-26 13:10 | 25.23573 | 55.36212 | 920 ft | 152 kts | 116° |
| 2026-04-26 13:10 | 25.23061 | 55.37224 | 1119 ft | 153 kts | 117° |
| 2026-04-26 13:11 | 25.22570 | 55.38330 | 1001 ft | 176 kts | 112° |
| 2026-04-26 13:11 | 25.22106 | 55.39656 | 882 ft | 188 kts | 111° |
| 2026-04-26 13:11 | 25.21601 | 55.40943 | 1055 ft | 176 kts | 108° |
| 2026-04-26 13:11 | 25.21692 | 55.42200 | 974 ft | 174 kts | 43° |
| 2026-04-26 13:12 | 25.22606 | 55.43010 | 1198 ft | 163 kts | 43° |
| 2026-04-26 13:12 | 25.23120 | 55.44107 | 1340 ft | 168 kts | 75° |
| 2026-04-26 13:12 | 25.23441 | 55.45394 | 684 ft | 209 kts | 67° |
| 2026-04-26 13:12 | 25.24140 | 55.46646 | 842 ft | 173 kts | 49° |
| 2026-04-26 13:13 | 25.24938 | 55.47510 | 848 ft | 146 kts | 30° |
| 2026-04-26 13:13 | 25.25812 | 55.48055 | 746 ft | 142 kts | 22° |
| 2026-04-26 13:13 | 25.26654 | 55.48545 | 692 ft | 138 kts | 28° |
| 2026-04-26 13:13 | 25.27431 | 55.49097 | 837 ft | 126 kts | 28° |
| 2026-04-26 13:14 | 25.28063 | 55.49612 | 931 ft | 118 kts | 32° |
| 2026-04-26 13:14 | 25.28720 | 55.50165 | 906 ft | 120 kts | 32° |
| 2026-04-26 13:14 | 25.29396 | 55.50724 | 822 ft | 124 kts | 30° |
| 2026-04-26 13:14 | 25.30118 | 55.51290 | 773 ft | 130 kts | 29° |
| 2026-04-26 13:15 | 25.30888 | 55.51827 | 642 ft | 132 kts | 25° |
| 2026-04-26 13:15 | 25.31442 | 55.52644 | 507 ft | 146 kts | 81° |
| 2026-04-26 13:15 | 25.31241 | 55.53706 | 496 ft | 139 kts | 116° |
| 2026-04-26 13:15 | 25.30913 | 55.54271 | 617 ft | 128 kts | 136° |
| 2026-04-26 13:16 | 25.30092 | 55.55181 | 673 ft | 124 kts | 141° |
| 2026-04-26 13:16 | 25.29431 | 55.55799 | 671 ft | 125 kts | 148° |
| 2026-04-26 13:16 | 25.29049 | 55.56523 | 681 ft | 106 kts | 69° |
| 2026-04-26 13:16 | 25.29627 | 55.56785 | 624 ft | 93 kts | 340° |
| 2026-04-26 13:17 | 25.30619 | 55.56083 | 713 ft | 87 kts | 304° |
| 2026-04-26 13:17 | 25.30975 | 55.55484 | 572 ft | 100 kts | 299° |
| 2026-04-26 13:18 | 25.31700 | 55.54229 | 387 ft | 98 kts | 298° |
| 2026-04-26 13:18 | 25.32060 | 55.53599 | 273 ft | 89 kts | 299° |
| 2026-04-26 13:18 | 25.32594 | 55.52633 | 114 ft | 64 kts | 307° |
| 2026-04-26 13:19 | 25.32861 | 55.52181 | 114 ft | 84 kts | 300° |
| 2026-04-26 13:19 | 25.33197 | 55.51582 | 231 ft | 97 kts | 297° |
| 2026-04-26 13:19 | 25.33558 | 55.50964 | 390 ft | 99 kts | 292° |
| 2026-04-26 13:19 | 25.33272 | 55.50413 | 535 ft | 110 kts | 196° |
| 2026-04-26 13:20 | 25.32513 | 55.50678 | 654 ft | 132 kts | 154° |
| 2026-04-26 13:20 | 25.31801 | 55.51344 | 669 ft | 148 kts | 102° |
| 2026-04-26 13:20 | 25.31251 | 55.52250 | 473 ft | 158 kts | 199° |
| 2026-04-26 13:20 | 25.30550 | 55.51587 | 638 ft | 116 kts | 250° |
| 2026-04-26 13:21 | 25.30399 | 55.50721 | 757 ft | 117 kts | 255° |
| 2026-04-26 13:21 | 25.30174 | 55.50147 | 800 ft | 128 kts | 243° |
| 2026-04-26 13:21 | 25.29029 | 55.49791 | 742 ft | 152 kts | 141° |
| 2026-04-26 13:21 | 25.28236 | 55.50596 | 440 ft | 151 kts | 163° |
| 2026-04-26 13:22 | 25.27233 | 55.50687 | 533 ft | 143 kts | 185° |
| 2026-04-26 13:22 | 25.26280 | 55.51056 | 644 ft | 150 kts | 147° |
| 2026-04-26 13:22 | 25.25537 | 55.51716 | 825 ft | 130 kts | 125° |
| 2026-04-26 13:22 | 25.25107 | 55.52614 | 764 ft | 131 kts | 114° |
| 2026-04-26 13:23 | 25.24806 | 55.53604 | 763 ft | 143 kts | 104° |
| 2026-04-26 13:23 | 25.24587 | 55.54684 | 758 ft | 142 kts | 103° |
| 2026-04-26 13:23 | 25.24256 | 55.55670 | 695 ft | 133 kts | 117° |
| 2026-04-26 13:23 | 25.23612 | 55.56288 | 696 ft | 125 kts | 175° |
| 2026-04-26 13:24 | 25.22769 | 55.56005 | 588 ft | 130 kts | 211° |
| 2026-04-26 13:24 | 25.21933 | 55.55593 | 593 ft | 136 kts | 208° |
| 2026-04-26 13:24 | 25.21109 | 55.55111 | 704 ft | 128 kts | 214° |
| 2026-04-26 13:24 | 25.20426 | 55.54639 | 826 ft | 109 kts | 219° |
| 2026-04-26 13:25 | 25.19818 | 55.54089 | 809 ft | 120 kts | 230° |
| 2026-04-26 13:25 | 25.19198 | 55.53362 | 665 ft | 133 kts | 234° |
| 2026-04-26 13:25 | 25.18707 | 55.52573 | 682 ft | 118 kts | 242° |
| 2026-04-26 13:25 | 25.18175 | 55.51920 | 735 ft | 118 kts | 223° |
| 2026-04-26 13:26 | 25.17594 | 55.51265 | 846 ft | 119 kts | 236° |
| 2026-04-26 13:26 | 25.17011 | 55.50548 | 824 ft | 135 kts | 232° |
| 2026-04-26 13:26 | 25.16621 | 55.49675 | 846 ft | 120 kts | 261° |
| 2026-04-26 13:26 | 25.16606 | 55.48806 | 997 ft | 112 kts | 272° |
| 2026-04-26 13:27 | 25.16589 | 55.47930 | 1176 ft | 115 kts | 273° |
| 2026-04-26 13:27 | 25.16566 | 55.47054 | 1326 ft | 114 kts | 267° |
| 2026-04-26 13:27 | 25.16481 | 55.46173 | 1465 ft | 116 kts | 273° |
| 2026-04-26 13:27 | 25.16535 | 55.45287 | 1637 ft | 114 kts | 280° |
| 2026-04-26 13:28 | 25.16591 | 55.44382 | 1696 ft | 122 kts | 273° |
| 2026-04-26 13:28 | 25.16528 | 55.43433 | 1720 ft | 126 kts | 267° |
| 2026-04-26 13:28 | 25.16434 | 55.42444 | 1741 ft | 130 kts | 265° |
| 2026-04-26 13:28 | 25.16348 | 55.41452 | 1828 ft | 130 kts | 270° |
| 2026-04-26 13:29 | 25.16280 | 55.40475 | 1980 ft | 123 kts | 269° |
| 2026-04-26 13:29 | 25.16245 | 55.39821 | 1551 ft | 151 kts | 271° |
| 2026-04-26 13:29 | 25.16272 | 55.38010 | 1103 ft | 165 kts | 275° |
| 2026-04-26 13:29 | 25.16344 | 55.36819 | 1116 ft | 157 kts | 277° |
| 2026-04-26 13:30 | 25.16431 | 55.35612 | 1028 ft | 159 kts | 275° |
| 2026-04-26 13:30 | 25.16580 | 55.34372 | 843 ft | 162 kts | 283° |
| 2026-04-26 13:30 | 25.16847 | 55.33198 | 732 ft | 159 kts | 281° |
| 2026-04-26 13:30 | 25.16884 | 55.32025 | 860 ft | 140 kts | 267° |
| 2026-04-26 13:31 | 25.16735 | 55.31043 | 1048 ft | 128 kts | 265° |
| 2026-04-26 13:31 | 25.16651 | 55.30058 | 1081 ft | 130 kts | 266° |
| 2026-04-26 13:31 | 25.16238 | 55.29170 | 1107 ft | 133 kts | 235° |
| 2026-04-26 13:31 | 25.15748 | 55.28337 | 1243 ft | 128 kts | 241° |
| 2026-04-26 13:32 | 25.15148 | 55.27585 | 1153 ft | 140 kts | 229° |
| 2026-04-26 13:32 | 25.14432 | 55.26763 | 909 ft | 155 kts | 229° |
| 2026-04-26 13:32 | 25.13652 | 55.25955 | 864 ft | 154 kts | 224° |
| 2026-04-26 13:32 | 25.12856 | 55.25156 | 757 ft | 156 kts | 225° |
| 2026-04-26 13:33 | 25.12039 | 55.24408 | 769 ft | 149 kts | 223° |
| 2026-04-26 13:33 | 25.11476 | 55.23513 | 725 ft | 144 kts | 259° |
| 2026-04-26 13:33 | 25.11275 | 55.22488 | 896 ft | 128 kts | 258° |
| 2026-04-26 13:33 | 25.10954 | 55.21580 | 972 ft | 131 kts | 250° |
| 2026-04-26 13:34 | 25.10576 | 55.20654 | 1019 ft | 132 kts | 246° |
| 2026-04-26 13:34 | 25.09990 | 55.19848 | 977 ft | 139 kts | 232° |
| 2026-04-26 13:34 | 25.09339 | 55.19057 | 973 ft | 144 kts | 232° |
| 2026-04-26 13:34 | 25.09096 | 55.18795 | 984 ft | 145 kts | 226° |
| 2026-04-26 13:35 | 25.07523 | 55.18096 | 940 ft | 156 kts | 170° |
| 2026-04-26 13:35 | 25.06837 | 55.18385 | 879 ft | 161 kts | 154° |
| 2026-04-26 13:35 | 25.05480 | 55.18483 | 920 ft | 154 kts | 205° |
| 2026-04-26 13:35 | 25.04830 | 55.18217 | 997 ft | 150 kts | 204° |
| 2026-04-26 13:36 | 25.03496 | 55.17773 | 1069 ft | 153 kts | 195° |
| 2026-04-26 13:36 | 25.02442 | 55.17704 | 1142 ft | 154 kts | 167° |
| 2026-04-26 13:36 | 25.01771 | 55.18006 | 1143 ft | 156 kts | 153° |
| 2026-04-26 13:36 | 25.00824 | 55.18564 | 1223 ft | 150 kts | 144° |
| 2026-04-26 13:37 | 24.99875 | 55.19055 | 1142 ft | 158 kts | 172° |
| 2026-04-26 13:37 | 24.98824 | 55.18784 | 1142 ft | 152 kts | 203° |
| 2026-04-26 13:37 | 24.97743 | 55.18709 | 1042 ft | 167 kts | 174° |
| 2026-04-26 13:37 | 24.96588 | 55.18859 | 994 ft | 170 kts | 163° |
| 2026-04-26 13:38 | 24.95507 | 55.19448 | 880 ft | 174 kts | 156° |
| 2026-04-26 13:38 | 24.94437 | 55.19986 | 977 ft | 165 kts | 140° |
| 2026-04-26 13:38 | 24.93716 | 55.20985 | 892 ft | 170 kts | 136° |
| 2026-04-26 13:38 | 24.92822 | 55.21802 | 955 ft | 166 kts | 136° |
| 2026-04-26 13:39 | 24.92036 | 55.22731 | 1115 ft | 164 kts | 125° |
| 2026-04-26 13:39 | 24.91331 | 55.23674 | 1028 ft | 156 kts | 128° |
| 2026-04-26 13:39 | 24.90614 | 55.24518 | 987 ft | 148 kts | 140° |
| 2026-04-26 13:39 | 24.89707 | 55.24916 | 872 ft | 142 kts | 193° |
| 2026-04-26 13:40 | 24.88817 | 55.24482 | 758 ft | 137 kts | 212° |
| 2026-04-26 13:40 | 24.87917 | 55.24027 | 925 ft | 145 kts | 207° |
| 2026-04-26 13:40 | 24.86948 | 55.23632 | 1077 ft | 154 kts | 204° |
| 2026-04-26 13:40 | 24.86390 | 55.22836 | 1262 ft | 121 kts | 275° |
| 2026-04-26 13:41 | 24.86548 | 55.21982 | 1137 ft | 115 kts | 303° |
| 2026-04-26 13:41 | 24.86934 | 55.21202 | 1037 ft | 116 kts | 304° |
| 2026-04-26 13:41 | 24.87306 | 55.20378 | 792 ft | 124 kts | 299° |
| 2026-04-26 13:41 | 24.87714 | 55.19587 | 636 ft | 116 kts | 306° |
| 2026-04-26 13:42 | 24.88149 | 55.18816 | 413 ft | 117 kts | 306° |
| 2026-04-26 13:42 | 24.88565 | 55.18088 | 268 ft | 111 kts | 301° |
| 2026-04-26 13:42 | 24.88951 | 55.17390 | 174 ft | 102 kts | 303° |
| 2026-04-26 13:42 | 24.89300 | 55.16760 | 155 ft | 91 kts | 307° |
| 2026-04-26 13:43 | 24.89513 | 55.16362 | 150 ft | 33 kts | 308° |
| 2026-04-26 13:43 | 24.89565 | 55.16186 | 149 ft | 21 kts | 276° |
| 2026-04-26 13:43 | 24.89569 | 55.16078 | 148 ft | 10 kts | 271° |
| 2026-04-26 13:43 | 24.89571 | 55.16026 | 147 ft | 0 kts | 268° |
| 2026-04-26 13:46 | 24.89571 | 55.16027 | 147 ft | 0 kts | 268° |